M I D A S
Marine Information and Data Acquisition System
Tripno 2015 of the Zeeleeuw from 2010-11-17 08:29:53 to 2010-11-17 15:14:32
Back to CruiseResearch ActivitiesStationsMapUnderway DataData graphs

EquipmentUnitsComment
TimeDGPSUTC
LatitudeDGPSDM.mWGS84
LongitudeDGPSDM.mWGS84
HeadingGyrodeg 
SOGDGPSknotsSpeed over ground
COGDGPSdegCourse over ground
DepthEcho soundermeters200 kHz
Missing or incorrect values are displayed as -999
Navigation data collected by the RV Zeeleeuw from 2010-11-17 07:24:56 to 2010-11-17 15:26:02
                                                                                    Next 1000 lines
Time Latitude Longitude Heading SOG COG Depth
2010-11-17 07:25:06 51°13.663 2°55.959 122.8 0.1 150 -999
2010-11-17 07:25:11 51°13.663 2°55.959 123 0.1 182 -999
2010-11-17 07:25:16 51°13.663 2°55.959 123.2 0.1 153 -999
2010-11-17 07:25:21 51°13.664 2°55.959 123.3 0.1 156 -999
2010-11-17 07:25:26 51°13.664 2°55.959 123.3 -999 116 -999
2010-11-17 07:25:31 51°13.664 2°55.958 123.3 -999 120 -999
2010-11-17 07:25:36 51°13.664 2°55.958 123.2 -999 42 -999
2010-11-17 07:25:41 51°13.664 2°55.958 123.1 -999 211 -999
2010-11-17 07:25:45 51°13.664 2°55.958 123.1 0.1 132 -999
2010-11-17 07:25:51 51°13.664 2°55.958 123.1 0.1 149 -999
2010-11-17 07:25:56 51°13.664 2°55.958 123.3 0.1 314 -999
2010-11-17 07:26:01 51°13.665 2°55.957 123.5 0.3 288 -999
2010-11-17 07:26:06 51°13.664 2°55.958 123.5 0.2 315 -999
2010-11-17 07:26:11 51°13.664 2°55.958 123.8 0.1 140 -999
2010-11-17 07:26:16 51°13.664 2°55.958 123.9 -999 80 -999
2010-11-17 07:26:21 51°13.665 2°55.958 124.1 0.1 356 -999
2010-11-17 07:26:26 51°13.665 2°55.958 124.2 0.1 13 -999
2010-11-17 07:26:31 51°13.664 2°55.958 124.2 0.1 78 -999
2010-11-17 07:26:36 51°13.664 2°55.958 124.2 0.1 346 -999
2010-11-17 07:26:41 51°13.664 2°55.958 124.2 0.1 338 -999
2010-11-17 07:26:46 51°13.664 2°55.957 124.1 0.1 318 -999
2010-11-17 07:26:51 51°13.664 2°55.958 123.9 -999 102 -999
2010-11-17 07:26:56 51°13.664 2°55.958 123.8 0.1 154 -999
2010-11-17 07:27:01 51°13.664 2°55.958 123.7 0.1 138 -999
2010-11-17 07:27:06 51°13.664 2°55.958 123.6 -999 161 -999
2010-11-17 07:27:11 51°13.664 2°55.957 123.6 0.1 338 -999
2010-11-17 07:27:16 51°13.664 2°55.958 123.6 -999 190 -999
2010-11-17 07:27:21 51°13.664 2°55.957 123.6 0.1 8 -999
2010-11-17 07:27:26 51°13.664 2°55.957 123.6 0.1 313 -999
2010-11-17 07:27:31 51°13.664 2°55.957 123.5 0.1 189 -999
2010-11-17 07:27:36 51°13.664 2°55.957 123.5 0.1 199 -999
2010-11-17 07:27:41 51°13.664 2°55.958 123.5 0.1 121 -999
2010-11-17 07:27:46 51°13.664 2°55.958 123.5 0.1 148 -999
2010-11-17 07:27:51 51°13.664 2°55.958 123.4 -999 83 -999
2010-11-17 07:27:56 51°13.664 2°55.958 123.4 -999 119 -999
2010-11-17 07:28:01 51°13.663 2°55.958 123.4 0.1 152 -999
2010-11-17 07:28:06 51°13.663 2°55.958 123.5 0.1 145 -999
2010-11-17 07:28:11 51°13.664 2°55.958 123.5 0.1 335 -999
2010-11-17 07:28:16 51°13.664 2°55.958 123.5 -999 297 -999
2010-11-17 07:28:21 51°13.664 2°55.958 123.5 -999 132 -999
2010-11-17 07:28:26 51°13.664 2°55.958 123.5 -999 60 -999
2010-11-17 07:28:31 51°13.664 2°55.958 123.6 0.1 119 -999
2010-11-17 07:28:36 51°13.664 2°55.958 123.7 -999 233 -999
2010-11-17 07:28:41 51°13.664 2°55.958 123.7 0.2 159 -999
2010-11-17 07:28:46 51°13.664 2°55.958 123.7 0.1 339 -999
2010-11-17 07:28:51 51°13.664 2°55.958 123.7 0.1 330 -999
2010-11-17 07:28:56 51°13.663 2°55.958 123.7 0.1 153 -999
2010-11-17 07:29:01 51°13.663 2°55.958 123.7 0.2 144 -999
2010-11-17 07:29:06 51°13.664 2°55.957 123.7 0.2 296 -999
2010-11-17 07:29:11 51°13.663 2°55.958 123.7 0.1 154 9.6
2010-11-17 07:29:16 51°13.663 2°55.958 123.7 0.1 162 9.6
2010-11-17 07:29:20 51°13.663 2°55.958 123.7 0.1 174 9.5
2010-11-17 07:29:25 51°13.664 2°55.958 123.7 0.1 262 9.6
2010-11-17 07:29:30 51°13.664 2°55.958 123.7 -999 339 9.6
2010-11-17 07:29:35 51°13.664 2°55.958 123.7 0.2 337 9.6
2010-11-17 07:29:40 51°13.664 2°55.958 123.7 0.2 326 9.6
2010-11-17 07:29:44 51°13.664 2°55.958 123.7 0.1 174 9.6
2010-11-17 07:29:49 51°13.664 2°55.958 123.7 0.1 229 9.6
2010-11-17 07:29:54 51°13.664 2°55.958 123.8 -999 343 9.6
2010-11-17 07:30:00 51°13.664 2°55.958 123.8 0.1 190 9.6
2010-11-17 07:30:04 51°13.664 2°55.958 123.9 -999 166 9.6
2010-11-17 07:30:09 51°13.664 2°55.958 123.9 0.1 300 9.6
2010-11-17 07:30:14 51°13.664 2°55.958 124 0.1 298 9.5
2010-11-17 07:30:18 51°13.664 2°55.958 124 0.1 345 9.8
2010-11-17 07:30:24 51°13.663 2°55.958 124.2 0.1 143 9.6
2010-11-17 07:30:28 51°13.663 2°55.958 124.2 0.1 132 9.6
2010-11-17 07:30:33 51°13.664 2°55.958 124.2 -999 45 9.6
2010-11-17 07:30:38 51°13.664 2°55.958 124.2 0.2 344 9.6
2010-11-17 07:30:43 51°13.664 2°55.958 124.2 0.1 294 9.6
2010-11-17 07:30:48 51°13.664 2°55.958 124.2 0.1 129 9.6
2010-11-17 07:30:52 51°13.664 2°55.958 124.2 0.2 329 9.6
2010-11-17 07:30:57 51°13.664 2°55.958 124.2 0.2 328 9.6
2010-11-17 07:31:02 51°13.664 2°55.958 124.2 -999 308 9.6
2010-11-17 07:31:07 51°13.665 2°55.959 124.2 0.1 159 9.6
2010-11-17 07:31:12 51°13.666 2°55.959 124.1 0.1 357 9.6
2010-11-17 07:31:16 51°13.667 2°55.959 124.1 0.3 322 9.6
2010-11-17 07:31:22 51°13.666 2°55.959 124.1 -999 355 9.6
2010-11-17 07:31:27 51°13.666 2°55.959 123.9 -999 106 9.5
2010-11-17 07:31:32 51°13.666 2°55.959 123.8 0.2 340 9.5
2010-11-17 07:31:37 51°13.665 2°55.958 123.6 0.2 283 9.6
2010-11-17 07:31:42 51°13.665 2°55.959 123.5 -999 296 9.5
2010-11-17 07:31:47 51°13.665 2°55.959 123.4 -999 357 9.5
2010-11-17 07:31:52 51°13.664 2°55.959 123.2 0.1 128 9.5
2010-11-17 07:31:57 51°13.665 2°55.959 123.1 -999 31 9.5
2010-11-17 07:32:02 51°13.664 2°55.959 123.1 0.2 192 9.6
2010-11-17 07:32:07 51°13.664 2°55.959 123.1 0.1 139 9.7
2010-11-17 07:32:12 51°13.665 2°55.959 123.1 0.1 14 9.6
2010-11-17 07:32:16 51°13.665 2°55.958 123.1 0.3 320 9.6
2010-11-17 07:32:22 51°13.664 2°55.959 123.1 0.1 317 9.7
2010-11-17 07:32:27 51°13.664 2°55.959 123.1 -999 53 9.7
2010-11-17 07:32:32 51°13.665 2°55.959 123.2 0.1 136 9.6
2010-11-17 07:32:36 51°13.664 2°55.959 123.2 -999 41 9.6
2010-11-17 07:32:42 51°13.664 2°55.959 123.3 0.1 157 9.8
2010-11-17 07:32:47 51°13.664 2°55.958 123.3 0.2 328 9.7
2010-11-17 07:32:52 51°13.664 2°55.959 123.3 0.1 193 9.6
2010-11-17 07:32:56 51°13.664 2°55.959 123.3 0.1 347 9.6
2010-11-17 07:33:01 51°13.664 2°55.959 123.3 0.3 339 9.6
2010-11-17 07:33:08 51°13.665 2°55.959 123.2 0.1 345 9.6
2010-11-17 07:33:12 51°13.665 2°55.959 123.1 0.1 322 9.6
2010-11-17 07:33:16 51°13.665 2°55.959 123.1 0.2 326 9.6
2010-11-17 07:33:21 51°13.665 2°55.959 123.1 -999 321 9.6
2010-11-17 07:33:27 51°13.665 2°55.96 123.1 0.1 162 9.6
2010-11-17 07:33:32 51°13.665 2°55.96 123 0.1 140 9.6
2010-11-17 07:33:37 51°13.665 2°55.96 123 0.1 123 9.6
2010-11-17 07:33:41 51°13.665 2°55.96 123 -999 347 9.6
2010-11-17 07:33:47 51°13.666 2°55.96 123 0.1 327 9.6
2010-11-17 07:33:53 51°13.666 2°55.96 123 0.2 157 9.6
2010-11-17 07:33:57 51°13.667 2°55.96 123.1 -999 223 9.6
2010-11-17 07:34:02 51°13.667 2°55.96 123.2 0.1 345 9.6
2010-11-17 07:34:07 51°13.667 2°55.96 123.2 0.1 319 9.6
2010-11-17 07:34:12 51°13.667 2°55.96 123.3 0.1 339 9.6
2010-11-17 07:34:17 51°13.666 2°55.96 123.4 -999 166 9.6
2010-11-17 07:34:22 51°13.665 2°55.96 123.5 0.2 148 9.6
2010-11-17 07:34:27 51°13.665 2°55.959 123.6 0.1 149 9.6
2010-11-17 07:34:32 51°13.664 2°55.959 123.7 -999 321 9.6
2010-11-17 07:34:37 51°13.662 2°55.959 123.8 0.1 161 9.6
2010-11-17 07:34:42 51°13.662 2°55.958 123.9 -999 354 9.6
2010-11-17 07:34:47 51°13.662 2°55.957 124.1 0.3 320 9.6
2010-11-17 07:34:52 51°13.662 2°55.958 124.1 0.2 319 9.6
2010-11-17 07:34:57 51°13.662 2°55.959 124.1 0.2 158 9.6
2010-11-17 07:35:02 51°13.662 2°55.959 124.1 0.1 131 9.6
2010-11-17 07:35:07 51°13.663 2°55.959 124.1 0.1 353 9.6
2010-11-17 07:35:12 51°13.665 2°55.959 124.1 0.1 20 9.6
2010-11-17 07:35:17 51°13.664 2°55.96 124.1 0.2 142 9.6
2010-11-17 07:35:21 51°13.665 2°55.96 124.1 0.1 16 9.6
2010-11-17 07:35:27 51°13.665 2°55.96 124.1 0.1 14 9.6
2010-11-17 07:35:32 51°13.665 2°55.96 124.1 0.1 142 9.6
2010-11-17 07:35:37 51°13.665 2°55.96 124.1 -999 90 9.6
2010-11-17 07:35:41 51°13.664 2°55.96 124.2 0.2 147 9.6
2010-11-17 07:35:47 51°13.664 2°55.959 124.2 0.1 152 9.7
2010-11-17 07:35:52 51°13.664 2°55.959 124.2 0.1 341 9.7
2010-11-17 07:35:57 51°13.664 2°55.959 124.2 0.1 342 9.6
2010-11-17 07:36:01 51°13.665 2°55.959 124.2 0.3 329 9.8
2010-11-17 07:36:06 51°13.664 2°55.959 124.3 0.1 343 9.6
2010-11-17 07:36:12 51°13.664 2°55.959 124.3 -999 355 9.6
2010-11-17 07:36:17 51°13.664 2°55.959 124.3 0.1 326 9.6
2010-11-17 07:36:22 51°13.665 2°55.959 124.3 0.2 337 9.6
2010-11-17 07:36:26 51°13.665 2°55.959 124.3 0.1 342 9.6
2010-11-17 07:36:32 51°13.665 2°55.959 124.3 0.1 30 9.6
2010-11-17 07:36:37 51°13.665 2°55.959 124.3 -999 198 9.6
2010-11-17 07:36:41 51°13.664 2°55.959 124.2 0.1 174 9.6
2010-11-17 07:36:46 51°13.664 2°55.96 124.1 0.3 173 9.6
2010-11-17 07:36:52 51°13.664 2°55.959 124.1 0.1 344 9.6
2010-11-17 07:36:57 51°13.664 2°55.96 124.1 0.1 118 9.6
2010-11-17 07:37:01 51°13.665 2°55.959 124 -999 184 9.6
2010-11-17 07:37:06 51°13.665 2°55.96 123.9 0.1 123 9.6
2010-11-17 07:37:12 51°13.665 2°55.96 123.9 0.1 135 9.6
2010-11-17 07:37:16 51°13.666 2°55.96 123.9 0.1 332 9.6
2010-11-17 07:37:21 51°13.665 2°55.96 123.8 0.1 333 9.6
2010-11-17 07:37:26 51°13.665 2°55.96 123.8 -999 180 9.6
2010-11-17 07:37:32 51°13.666 2°55.96 123.8 -999 162 9.6
2010-11-17 07:37:37 51°13.666 2°55.96 123.8 -999 141 9.7
2010-11-17 07:37:41 51°13.665 2°55.959 123.8 0.1 146 9.6
2010-11-17 07:37:47 51°13.664 2°55.959 123.7 0.1 131 9.6
2010-11-17 07:37:52 51°13.663 2°55.958 123.6 0.1 137 9.6
2010-11-17 07:37:58 51°13.662 2°55.958 123.5 0.1 319 9.6
2010-11-17 07:38:01 51°13.662 2°55.957 123.5 -999 145 9.6
2010-11-17 07:38:07 51°13.661 2°55.956 123.4 -999 306 9.6
2010-11-17 07:38:12 51°13.66 2°55.957 123.4 0.1 104 9.7
2010-11-17 07:38:17 51°13.661 2°55.957 123.5 0.1 115 9.7
2010-11-17 07:38:21 51°13.662 2°55.958 123.5 -999 183 9.6
2010-11-17 07:38:26 51°13.663 2°55.958 123.7 -999 47 9.6
2010-11-17 07:38:32 51°13.663 2°55.959 123.8 0.2 147 9.6
2010-11-17 07:38:38 51°13.663 2°55.958 124.1 0.1 331 9.8
2010-11-17 07:38:41 51°13.663 2°55.958 124.2 -999 296 9.7
2010-11-17 07:38:45 51°13.662 2°55.959 124.3 0.2 142 9.7
2010-11-17 07:38:51 51°13.663 2°55.959 124.5 0.1 357 9.7
2010-11-17 07:38:57 51°13.663 2°55.959 124.6 0.1 148 9.7
2010-11-17 07:39:01 51°13.663 2°55.959 124.7 0.1 163 9.7
2010-11-17 07:39:05 51°13.663 2°55.958 124.8 0.1 332 9.7
2010-11-17 07:39:12 51°13.663 2°55.958 124.8 -999 344 9.6
2010-11-17 07:39:17 51°13.663 2°55.958 124.8 0.1 7 9.6
2010-11-17 07:39:21 51°13.664 2°55.958 124.5 -999 257 9.6
2010-11-17 07:39:27 51°13.664 2°55.959 124.1 0.1 124 9.6
2010-11-17 07:39:32 51°13.664 2°55.958 123.9 0.2 324 9.6
2010-11-17 07:39:37 51°13.664 2°55.959 123.9 0.1 136 9.7
2010-11-17 07:39:42 51°13.664 2°55.959 123.9 0.2 141 9.7
2010-11-17 07:39:47 51°13.663 2°55.959 123.8 0.1 179 9.8
2010-11-17 07:39:52 51°13.663 2°55.959 123.8 0.1 215 9.7
2010-11-17 07:39:57 51°13.663 2°55.959 123.9 -999 209 9.7
2010-11-17 07:40:02 51°13.664 2°55.959 124.1 0.2 329 9.8
2010-11-17 07:40:07 51°13.664 2°55.959 124.2 0.1 121 9.7
2010-11-17 07:40:13 51°13.664 2°55.959 124.2 0.1 267 9.7
2010-11-17 07:40:17 51°13.664 2°55.959 124.1 0.1 334 9.6
2010-11-17 07:40:21 51°13.664 2°55.959 124.1 0.1 334 9.6
2010-11-17 07:40:26 51°13.664 2°55.959 124.1 0.1 325 9.6
2010-11-17 07:40:32 51°13.665 2°55.959 124.1 0.1 309 9.6
2010-11-17 07:40:38 51°13.665 2°55.959 124.1 0.1 304 9.7
2010-11-17 07:40:41 51°13.665 2°55.959 124 0.1 299 9.7
2010-11-17 07:40:45 51°13.664 2°55.959 123.9 -999 214 9.7
2010-11-17 07:40:52 51°13.663 2°55.959 123.8 0.1 321 9.7
2010-11-17 07:40:57 51°13.663 2°55.959 123.8 -999 305 9.7
2010-11-17 07:41:01 51°13.663 2°55.959 123.8 0.1 314 9.7
2010-11-17 07:41:06 51°13.662 2°55.959 123.7 -999 189 9.8
2010-11-17 07:41:12 51°13.662 2°55.959 123.6 0.1 153 9.7
2010-11-17 07:41:17 51°13.662 2°55.959 123.6 0.1 142 9.7
2010-11-17 07:41:21 51°13.662 2°55.959 123.6 0.1 144 9.7
2010-11-17 07:41:27 51°13.662 2°55.96 123.6 0.2 137 9.7
2010-11-17 07:41:32 51°13.663 2°55.959 123.6 -999 147 9.7
2010-11-17 07:41:37 51°13.662 2°55.959 123.6 -999 134 9.7
2010-11-17 07:41:41 51°13.662 2°55.959 123.6 -999 150 9.7
2010-11-17 07:41:46 51°13.663 2°55.959 123.7 0.1 312 9.7
2010-11-17 07:41:52 51°13.663 2°55.96 123.8 0.1 148 9.7
2010-11-17 07:41:57 51°13.663 2°55.96 123.9 0.1 138 9.7
2010-11-17 07:42:01 51°13.663 2°55.96 124.1 -999 197 9.7
2010-11-17 07:42:07 51°13.663 2°55.96 124.1 0.1 166 9.7
2010-11-17 07:42:12 51°13.663 2°55.96 124.2 0.1 317 9.7
2010-11-17 07:42:16 51°13.663 2°55.96 124.2 0.1 341 9.7
2010-11-17 07:42:21 51°13.663 2°55.96 124.2 0.1 317 9.7
2010-11-17 07:42:25 51°13.662 2°55.96 124.2 0.1 132 9.7
2010-11-17 07:42:32 51°13.663 2°55.96 123.8 0.1 52 9.7
2010-11-17 07:42:37 51°13.664 2°55.961 123.5 0.1 332 9.7
2010-11-17 07:42:41 51°13.664 2°55.961 123.3 -999 318 9.7
2010-11-17 07:42:45 51°13.665 2°55.961 123 -999 301 9.7
2010-11-17 07:42:52 51°13.664 2°55.961 123 -999 294 9.7
2010-11-17 07:42:57 51°13.664 2°55.961 123 -999 122 9.7
2010-11-17 07:43:01 51°13.664 2°55.961 123 0.1 155 9.7
2010-11-17 07:43:06 51°13.665 2°55.961 123 0.1 321 9.7
2010-11-17 07:43:11 51°13.664 2°55.96 123 0.2 310 9.7
2010-11-17 07:43:17 51°13.664 2°55.96 123 -999 334 9.7
2010-11-17 07:43:21 51°13.664 2°55.96 123 -999 322 9.7
2010-11-17 07:43:25 51°13.664 2°55.96 123 0.2 328 9.7
2010-11-17 07:43:32 51°13.664 2°55.96 123 0.3 330 9.7
2010-11-17 07:43:37 51°13.664 2°55.96 123 -999 43 10
2010-11-17 07:43:41 51°13.664 2°55.96 123.1 0.1 321 9.8
2010-11-17 07:43:47 51°13.664 2°55.961 123.2 -999 283 9.8
2010-11-17 07:43:52 51°13.664 2°55.961 123.4 0.1 146 9.7
2010-11-17 07:43:56 51°13.664 2°55.96 123.5 -999 139 9.7
2010-11-17 07:44:01 51°13.664 2°55.96 123.7 0.1 323 9.7
2010-11-17 07:44:07 51°13.664 2°55.96 123.7 0.3 328 9.8
2010-11-17 07:44:12 51°13.663 2°55.961 123.8 0.1 149 9.7
2010-11-17 07:44:17 51°13.664 2°55.961 123.7 0.1 124 9.7
2010-11-17 07:44:21 51°13.664 2°55.961 123.7 0.1 346 9.7
2010-11-17 07:44:26 51°13.664 2°55.961 123.8 -999 350 9.7
2010-11-17 07:44:32 51°13.664 2°55.961 123.9 0.1 131 9.7
2010-11-17 07:44:37 51°13.665 2°55.962 124.1 0.2 148 9.7
2010-11-17 07:44:41 51°13.665 2°55.962 124.2 -999 165 9.7
2010-11-17 07:44:45 51°13.665 2°55.962 124.2 0.2 131 9.7
2010-11-17 07:44:52 51°13.666 2°55.963 124.2 0.2 143 9.7
2010-11-17 07:44:57 51°13.666 2°55.963 124.2 0.3 147 9.7
2010-11-17 07:45:01 51°13.667 2°55.962 124.2 -999 17 9.7
2010-11-17 07:45:05 51°13.666 2°55.963 124.2 0.1 146 9.7
2010-11-17 07:45:12 51°13.666 2°55.962 124.2 0.1 323 9.7
2010-11-17 07:45:17 51°13.666 2°55.962 124.2 0.2 339 9.8
2010-11-17 07:45:21 51°13.666 2°55.962 124.1 0.1 145 9.7
2010-11-17 07:45:26 51°13.665 2°55.962 124.1 0.3 141 9.7
2010-11-17 07:45:32 51°13.663 2°55.961 124.1 0.2 146 9.7
2010-11-17 07:45:38 51°13.663 2°55.959 124.1 0.1 308 9.7
2010-11-17 07:45:42 51°13.663 2°55.958 124.1 0.3 325 9.7
2010-11-17 07:45:47 51°13.662 2°55.958 124.1 0.2 321 9.7
2010-11-17 07:45:52 51°13.661 2°55.959 124.1 0.1 153 9.7
2010-11-17 07:45:57 51°13.662 2°55.959 124.1 0.2 338 9.8
2010-11-17 07:46:02 51°13.662 2°55.959 124.1 0.2 322 9.7
2010-11-17 07:46:07 51°13.663 2°55.96 124.1 0.1 324 9.7
2010-11-17 07:46:12 51°13.663 2°55.96 124.1 0.1 148 9.8
2010-11-17 07:46:17 51°13.664 2°55.961 124.1 0.1 126 9.7
2010-11-17 07:46:22 51°13.664 2°55.961 124.1 0.1 143 9.7
2010-11-17 07:46:27 51°13.663 2°55.96 124.1 -999 162 9.9
2010-11-17 07:46:32 51°13.662 2°55.959 124.1 0.1 140 9.8
2010-11-17 07:46:37 51°13.662 2°55.959 124.1 0.1 352 9.7
2010-11-17 07:46:42 51°13.662 2°55.96 124.1 0.1 144 9.7
2010-11-17 07:46:47 51°13.662 2°55.959 124 -999 265 9.7
2010-11-17 07:46:52 51°13.662 2°55.959 123.9 -999 122 9.8
2010-11-17 07:46:57 51°13.661 2°55.959 123.8 0.1 136 9.7
2010-11-17 07:47:02 51°13.661 2°55.959 123.8 0.1 134 9.7
2010-11-17 07:47:06 51°13.661 2°55.959 123.6 0.1 147 9.7
2010-11-17 07:47:12 51°13.663 2°55.959 123.6 -999 324 9.8
2010-11-17 07:47:17 51°13.663 2°55.96 123.6 0.1 318 9.8
2010-11-17 07:47:22 51°13.664 2°55.96 123.6 0.1 309 9.9
2010-11-17 07:47:26 51°13.665 2°55.96 123.6 0.4 336 9.8
2010-11-17 07:47:32 51°13.665 2°55.959 123.5 0.4 325 9.7
2010-11-17 07:47:37 51°13.664 2°55.96 123.5 0.2 149 9.9
2010-11-17 07:47:42 51°13.664 2°55.961 123.4 0.4 146 9.8
2010-11-17 07:47:46 51°13.664 2°55.961 123.4 -999 136 9.8
2010-11-17 07:47:52 51°13.666 2°55.961 123.3 0.2 325 9.7
2010-11-17 07:47:58 51°13.665 2°55.961 123.2 0.1 320 9.7
2010-11-17 07:48:02 51°13.665 2°55.961 123.2 -999 126 9.7
2010-11-17 07:48:06 51°13.666 2°55.962 123 -999 118 9.7
2010-11-17 07:48:13 51°13.666 2°55.962 123 -999 126 9.7
2010-11-17 07:48:17 51°13.667 2°55.962 122.9 -999 119 9.7
2010-11-17 07:48:22 51°13.667 2°55.962 122.9 -999 144 9.7
2010-11-17 07:48:26 51°13.667 2°55.962 122.9 0.1 312 9.7
2010-11-17 07:48:31 51°13.668 2°55.962 122.9 0.1 336 9.8
2010-11-17 07:48:36 51°13.668 2°55.963 122.9 0.1 329 9.8
2010-11-17 07:48:42 51°13.668 2°55.963 123 0.1 318 9.8
2010-11-17 07:48:46 51°13.668 2°55.963 123 0.1 335 9.8
2010-11-17 07:48:52 51°13.665 2°55.962 123.1 0.3 146 9.8
2010-11-17 07:48:58 51°13.664 2°55.961 123.2 0.3 151 9.8
2010-11-17 07:49:02 51°13.664 2°55.961 123.3 0.2 141 9.8
2010-11-17 07:49:06 51°13.665 2°55.961 123.5 0.1 141 9.8
2010-11-17 07:49:12 51°13.664 2°55.961 123.5 0.2 183 9.8
2010-11-17 07:49:17 51°13.666 2°55.962 123.9 0.1 323 9.8
2010-11-17 07:49:22 51°13.667 2°55.963 124.1 0.1 140 9.8
2010-11-17 07:49:26 51°13.667 2°55.963 124.2 -999 13 9.8
2010-11-17 07:49:32 51°13.666 2°55.962 124.2 0.1 150 9.8
2010-11-17 07:49:37 51°13.665 2°55.962 124.2 0.2 169 9.9
2010-11-17 07:49:43 51°13.666 2°55.962 124.1 0.1 326 9.8
2010-11-17 07:49:46 51°13.667 2°55.962 123.9 0.2 330 9.8
2010-11-17 07:49:51 51°13.667 2°55.962 123.7 0.3 326 9.8
2010-11-17 07:49:57 51°13.665 2°55.962 123.5 0.1 307 9.8
2010-11-17 07:50:02 51°13.665 2°55.961 123.4 0.1 230 9.8
2010-11-17 07:50:06 51°13.665 2°55.961 123.3 0.2 334 9.8
2010-11-17 07:50:11 51°13.664 2°55.961 123.1 0.2 194 9.8
2010-11-17 07:50:17 51°13.665 2°55.961 123 0.2 350 9.9
2010-11-17 07:50:22 51°13.664 2°55.961 123 0.1 138 9.8
2010-11-17 07:50:26 51°13.664 2°55.961 123 0.2 130 9.8
2010-11-17 07:50:31 51°13.665 2°55.96 123 0.1 339 9.8
2010-11-17 07:50:38 51°13.664 2°55.96 123 0.1 196 9.9
2010-11-17 07:50:43 51°13.664 2°55.96 123.4 0.1 200 9.8
2010-11-17 07:50:46 51°13.664 2°55.96 123.7 0.2 154 9.8
2010-11-17 07:50:51 51°13.663 2°55.96 124 0.2 164 9.8
2010-11-17 07:50:56 51°13.664 2°55.96 124.2 0.1 163 9.8
2010-11-17 07:51:03 51°13.663 2°55.96 124.3 0.1 129 9.9
2010-11-17 07:51:06 51°13.663 2°55.96 124.6 0.2 153 9.8
2010-11-17 07:51:11 51°13.663 2°55.96 124.9 -999 85 9.8
2010-11-17 07:51:17 51°13.663 2°55.96 124.9 0.1 147 9.8
2010-11-17 07:51:22 51°13.662 2°55.96 125.1 0.3 155 9.8
2010-11-17 07:51:26 51°13.663 2°55.959 125.2 0.1 166 9.8
2010-11-17 07:51:32 51°13.663 2°55.96 125.2 0.2 146 9.8
2010-11-17 07:51:38 51°13.663 2°55.96 125.2 0.1 30 9.8
2010-11-17 07:51:43 51°13.663 2°55.96 125.2 0.2 56 9.8
2010-11-17 07:51:47 51°13.662 2°55.96 125.2 0.2 121 9.8
2010-11-17 07:51:52 51°13.661 2°55.96 125.3 0.6 163 9.9
2010-11-17 07:51:57 51°13.662 2°55.959 125.3 0.3 181 9.8
2010-11-17 07:52:02 51°13.662 2°55.959 125.3 0.1 336 9.8
2010-11-17 07:52:06 51°13.662 2°55.958 125.3 0.2 322 9.8
2010-11-17 07:52:12 51°13.662 2°55.958 125.4 0.1 71 9.8
2010-11-17 07:52:18 51°13.662 2°55.959 125.4 0.2 138 10
2010-11-17 07:52:22 51°13.662 2°55.959 125.4 0.3 143 9.8
2010-11-17 07:52:26 51°13.662 2°55.958 125.3 0.1 57 9.8
2010-11-17 07:52:31 51°13.662 2°55.959 125.3 0.2 16 9.8
2010-11-17 07:52:37 51°13.663 2°55.959 125.3 0.1 132 9.8
2010-11-17 07:52:42 51°13.663 2°55.959 125.2 0.1 346 9.8
2010-11-17 07:52:46 51°13.664 2°55.959 125.2 0.1 349 9.8
2010-11-17 07:52:51 51°13.663 2°55.96 125.2 0.1 172 9.8
2010-11-17 07:52:56 51°13.663 2°55.96 125.2 0.2 149 9.8
2010-11-17 07:53:02 51°13.664 2°55.961 125.2 0.3 136 9.8
2010-11-17 07:53:06 51°13.664 2°55.961 125.2 0.1 136 9.8
2010-11-17 07:53:11 51°13.665 2°55.961 125.3 0.1 304 9.8
2010-11-17 07:53:17 51°13.664 2°55.961 125.3 0.1 152 9.8
2010-11-17 07:53:22 51°13.664 2°55.961 125.3 0.3 139 9.8
2010-11-17 07:53:26 51°13.663 2°55.961 125.3 0.3 140 9.8
2010-11-17 07:53:32 51°13.664 2°55.961 125.3 0.2 149 9.8
2010-11-17 07:53:37 51°13.664 2°55.961 125.3 -999 328 9.8
2010-11-17 07:53:42 51°13.664 2°55.96 125.3 0.1 330 9.8
2010-11-17 07:53:47 51°13.665 2°55.961 125.3 0.2 331 9.8
2010-11-17 07:53:52 51°13.665 2°55.961 125.3 0.3 349 9.8
2010-11-17 07:53:57 51°13.665 2°55.961 125.3 0.3 357 9.8
2010-11-17 07:54:02 51°13.664 2°55.961 125.3 -999 7 9.8
2010-11-17 07:54:07 51°13.664 2°55.961 125.4 -999 352 9.8
2010-11-17 07:54:12 51°13.664 2°55.961 125.4 -999 119 9.8
2010-11-17 07:54:17 51°13.665 2°55.961 125.4 0.1 320 9.8
2010-11-17 07:54:22 51°13.665 2°55.961 125.5 -999 56 9.8
2010-11-17 07:54:27 51°13.664 2°55.961 125.5 0.1 116 9.8
2010-11-17 07:54:32 51°13.663 2°55.96 125.6 0.1 189 9.8
2010-11-17 07:54:37 51°13.662 2°55.96 125.6 -999 122 9.8
2010-11-17 07:54:42 51°13.662 2°55.959 125.6 -999 331 9.9
2010-11-17 07:54:47 51°13.663 2°55.96 125.6 0.1 325 9.9
2010-11-17 07:54:52 51°13.663 2°55.96 125.6 -999 178 9.9
2010-11-17 07:54:57 51°13.663 2°55.959 125.6 -999 143 9.8
2010-11-17 07:55:03 51°13.663 2°55.959 125.6 0.1 14 9.8
2010-11-17 07:55:07 51°13.662 2°55.96 125.6 0.2 152 9.8
2010-11-17 07:55:12 51°13.663 2°55.96 125.7 0.2 164 9.9
2010-11-17 07:55:17 51°13.663 2°55.96 125.8 0.1 351 9.8
2010-11-17 07:55:22 51°13.663 2°55.96 125.9 -999 338 9.8
2010-11-17 07:55:27 51°13.663 2°55.96 126.1 0.1 196 9.8
2010-11-17 07:55:32 51°13.663 2°55.96 126.4 0.2 340 9.8
2010-11-17 07:55:37 51°13.663 2°55.96 126.7 0.1 118 9.8
2010-11-17 07:55:42 51°13.663 2°55.959 127 0.2 327 9.8
2010-11-17 07:55:47 51°13.663 2°55.96 127.1 0.1 337 9.8
2010-11-17 07:55:51 51°13.663 2°55.96 127.1 0.1 262 9.9
2010-11-17 07:55:57 51°13.663 2°55.96 127.1 0.1 250 9.8
2010-11-17 07:56:02 51°13.664 2°55.96 127.1 0.1 297 9.8
2010-11-17 07:56:07 51°13.664 2°55.96 126.9 -999 178 9.8
2010-11-17 07:56:11 51°13.664 2°55.96 126.6 0.2 317 9.8
2010-11-17 07:56:17 51°13.664 2°55.961 126.4 -999 66 9.8
2010-11-17 07:56:22 51°13.664 2°55.961 126.1 0.1 140 9.8
2010-11-17 07:56:27 51°13.665 2°55.961 125.8 0.1 314 9.8
2010-11-17 07:56:31 51°13.665 2°55.961 125.5 0.2 321 9.8
2010-11-17 07:56:37 51°13.665 2°55.962 125.4 0.1 149 9.8
2010-11-17 07:56:42 51°13.665 2°55.962 125.3 0.1 143 9.8
2010-11-17 07:56:47 51°13.664 2°55.961 125.3 0.1 156 9.8
2010-11-17 07:56:51 51°13.664 2°55.96 125.3 0.1 148 9.8
2010-11-17 07:56:57 51°13.663 2°55.961 125.6 0.3 152 9.8
2010-11-17 07:57:02 51°13.663 2°55.961 125.8 0.4 159 9.8
2010-11-17 07:57:07 51°13.663 2°55.96 125.8 0.2 144 9.8
2010-11-17 07:57:11 51°13.663 2°55.96 126 0.1 44 9.8
2010-11-17 07:57:16 51°13.663 2°55.96 126.3 0.1 148 9.8
2010-11-17 07:57:22 51°13.663 2°55.96 126.5 0.1 45 9.9
2010-11-17 07:57:27 51°13.662 2°55.96 126.8 0.2 140 9.8
2010-11-17 07:57:31 51°13.662 2°55.96 127 0.1 124 9.8
2010-11-17 07:57:35 51°13.662 2°55.96 127.1 0.2 138 9.8
2010-11-17 07:57:42 51°13.662 2°55.96 127.2 0.5 144 9.9
2010-11-17 07:57:47 51°13.662 2°55.96 127.4 0.2 141 9.8
2010-11-17 07:57:51 51°13.663 2°55.96 127.4 0.1 153 9.8
2010-11-17 07:57:57 51°13.663 2°55.961 127.5 0.2 144 9.8
2010-11-17 07:58:02 51°13.663 2°55.961 127.5 0.1 162 9.8
2010-11-17 07:58:07 51°13.663 2°55.96 127.5 0.2 176 9.8
2010-11-17 07:58:11 51°13.664 2°55.96 127.5 0.2 317 9.8
2010-11-17 07:58:16 51°13.664 2°55.96 127.5 -999 231 9.8
2010-11-17 07:58:22 51°13.664 2°55.96 127.5 -999 135 9.8
2010-11-17 07:58:27 51°13.664 2°55.96 127.3 0.1 129 9.8
2010-11-17 07:58:31 51°13.664 2°55.96 127.1 0.1 353 9.8
2010-11-17 07:58:37 51°13.664 2°55.96 127.1 0.1 261 9.8
2010-11-17 07:58:42 51°13.666 2°55.961 127 0.1 319 9.8
2010-11-17 07:58:46 51°13.669 2°55.964 126.9 0.1 312 9.8
2010-11-17 07:58:51 51°13.671 2°55.966 126.9 0.2 323 9.8
2010-11-17 07:58:57 51°13.673 2°55.968 126.9 0.1 323 9.8
2010-11-17 07:59:02 51°13.671 2°55.966 126.9 -999 125 9.8
2010-11-17 07:59:07 51°13.67 2°55.966 126.8 0.1 122 9.8
2010-11-17 07:59:12 51°13.672 2°55.967 126.8 0.1 327 9.8
2010-11-17 07:59:17 51°13.67 2°55.965 126.8 0.1 342 9.8
2010-11-17 07:59:23 51°13.669 2°55.965 126.8 0.1 98 9.8
2010-11-17 07:59:28 51°13.668 2°55.962 126.8 0.3 317 10
2010-11-17 07:59:32 51°13.666 2°55.961 127 0.3 308 9.8
2010-11-17 07:59:37 51°13.665 2°55.961 127.1 0.2 274 9.9
2010-11-17 07:59:43 51°13.665 2°55.961 127.2 0.2 273 9.8
2010-11-17 07:59:47 51°13.666 2°55.961 127.3 0.4 337 9.9
2010-11-17 07:59:52 51°13.665 2°55.961 127.3 0.2 333 9.8
2010-11-17 07:59:57 51°13.665 2°55.961 127.3 0.1 348 9.8
2010-11-17 08:00:02 51°13.665 2°55.961 127.3 0.1 162 9.8
2010-11-17 08:00:08 51°13.665 2°55.962 127.3 0.1 149 9.8
2010-11-17 08:00:12 51°13.665 2°55.961 127.2 -999 73 9.8
2010-11-17 08:00:17 51°13.664 2°55.962 127.1 0.2 162 9.8
2010-11-17 08:00:22 51°13.664 2°55.961 127 0.1 148 9.8
2010-11-17 08:00:28 51°13.664 2°55.961 126.9 0.1 204 9.8
2010-11-17 08:00:32 51°13.664 2°55.961 126.8 0.1 216 9.9
2010-11-17 08:00:37 51°13.665 2°55.961 126.6 0.1 292 9.8
2010-11-17 08:00:43 51°13.663 2°55.961 126.4 0.2 159 9.8
2010-11-17 08:00:47 51°13.663 2°55.961 126.2 0.4 151 9.8
2010-11-17 08:00:52 51°13.664 2°55.96 126 0.3 234 9.8
2010-11-17 08:00:57 51°13.664 2°55.96 125.8 0.1 285 9.9
2010-11-17 08:01:02 51°13.664 2°55.96 125.7 0.2 317 9.8
2010-11-17 08:01:08 51°13.664 2°55.96 125.6 -999 291 9.9
2010-11-17 08:01:12 51°13.664 2°55.96 125.4 -999 344 9.8
2010-11-17 08:01:17 51°13.663 2°55.96 125.2 0.2 176 9.8
2010-11-17 08:01:23 51°13.663 2°55.959 125.1 0.1 269 9.8
2010-11-17 08:01:27 51°13.663 2°55.959 125.1 0.2 230 9.8
2010-11-17 08:01:32 51°13.663 2°55.959 125.1 0.1 188 9.8
2010-11-17 08:01:37 51°13.663 2°55.96 125.1 0.1 43 9.8
2010-11-17 08:01:43 51°13.663 2°55.96 125.1 0.1 32 9.8
2010-11-17 08:01:48 51°13.662 2°55.96 125.1 0.1 104 9.9
2010-11-17 08:01:52 51°13.662 2°55.96 125.1 0.1 123 9.9
2010-11-17 08:01:56 51°13.662 2°55.959 125.1 0.1 209 9.9
2010-11-17 08:02:03 51°13.663 2°55.96 125.1 0.2 331 9.9
2010-11-17 08:02:08 51°13.665 2°55.962 125.2 0.1 134 9.8
2010-11-17 08:02:12 51°13.664 2°55.962 125.3 0.2 153 9.8
2010-11-17 08:02:17 51°13.666 2°55.963 125.4 -999 139 9.8
2010-11-17 08:02:22 51°13.667 2°55.964 125.5 0.1 317 9.8
2010-11-17 08:02:27 51°13.667 2°55.964 125.6 0.1 326 9.9
2010-11-17 08:02:32 51°13.665 2°55.962 125.7 0.2 354 9.9
2010-11-17 08:02:37 51°13.663 2°55.961 125.7 0.1 14 9.9
2010-11-17 08:02:42 51°13.662 2°55.96 125.7 0.1 249 9.9
2010-11-17 08:02:47 51°13.662 2°55.96 125.7 0.1 288 9.9
2010-11-17 08:02:52 51°13.662 2°55.96 125.7 -999 118 9.9
2010-11-17 08:02:57 51°13.662 2°55.96 125.7 0.1 160 9.9
2010-11-17 08:03:03 51°13.662 2°55.959 125.7 0.1 277 9.8
2010-11-17 08:03:07 51°13.662 2°55.96 125.7 0.2 347 9.8
2010-11-17 08:03:13 51°13.662 2°55.959 125.8 0.1 188 9.8
2010-11-17 08:03:17 51°13.662 2°55.96 125.9 -999 131 9.9
2010-11-17 08:03:22 51°13.662 2°55.96 126 0.1 205 9.9
2010-11-17 08:03:27 51°13.662 2°55.959 126.1 0.1 339 9.8
2010-11-17 08:03:32 51°13.662 2°55.96 126.2 0.1 347 9.9
2010-11-17 08:03:37 51°13.662 2°55.959 126.3 0.1 319 9.9
2010-11-17 08:03:42 51°13.662 2°55.959 126.4 0.2 208 9.9
2010-11-17 08:03:47 51°13.662 2°55.959 126.6 0.1 315 9.9
2010-11-17 08:03:52 51°13.661 2°55.96 126.7 0.2 162 9.9
2010-11-17 08:03:57 51°13.661 2°55.96 127 -999 235 10
2010-11-17 08:04:02 51°13.661 2°55.96 127.1 0.2 186 10.1
2010-11-17 08:04:07 51°13.661 2°55.96 127.2 0.1 182 10
2010-11-17 08:04:12 51°13.661 2°55.96 127.3 0.1 117 9.9
2010-11-17 08:04:17 51°13.661 2°55.96 127.3 0.1 186 9.9
2010-11-17 08:04:22 51°13.661 2°55.959 127.3 0.2 260 9.9
2010-11-17 08:04:27 51°13.661 2°55.959 127.3 0.1 222 9.9
2010-11-17 08:04:32 51°13.661 2°55.959 127.3 0.2 353 9.9
2010-11-17 08:04:37 51°13.661 2°55.959 127.3 0.2 -999 9.9
2010-11-17 08:04:42 51°13.66 2°55.959 127.3 0.1 328 9.9
2010-11-17 08:04:47 51°13.661 2°55.959 127.4 0.2 341 9.9
2010-11-17 08:04:52 51°13.661 2°55.959 127.4 0.3 323 9.9
2010-11-17 08:04:57 51°13.661 2°55.959 127.6 0.2 323 9.9
2010-11-17 08:05:02 51°13.66 2°55.959 127.6 0.2 162 9.9
2010-11-17 08:05:07 51°13.66 2°55.96 127.6 0.2 146 10
2010-11-17 08:05:12 51°13.661 2°55.959 127.6 0.1 354 9.9
2010-11-17 08:05:17 51°13.661 2°55.959 127.6 0.3 348 9.9
2010-11-17 08:05:22 51°13.66 2°55.959 127.6 -999 123 9.9
2010-11-17 08:05:27 51°13.66 2°55.959 127.7 0.1 197 9.9
2010-11-17 08:05:32 51°13.66 2°55.959 127.7 -999 42 9.9
2010-11-17 08:05:37 51°13.66 2°55.959 127.7 -999 158 9.9
2010-11-17 08:05:42 51°13.66 2°55.959 127.7 0.1 217 9.9
2010-11-17 08:05:47 51°13.661 2°55.959 127.7 0.1 210 9.9
2010-11-17 08:05:52 51°13.661 2°55.959 127.7 0.2 196 9.9
2010-11-17 08:05:57 51°13.662 2°55.959 127.7 0.4 342 9.9
2010-11-17 08:06:02 51°13.661 2°55.959 127.7 0.1 332 9.9
2010-11-17 08:06:07 51°13.66 2°55.959 127.7 0.1 176 9.9
2010-11-17 08:06:12 51°13.66 2°55.959 127.7 0.1 146 10
2010-11-17 08:06:17 51°13.66 2°55.959 127.7 0.1 138 10
2010-11-17 08:06:22 51°13.661 2°55.959 127.7 0.4 8 10
2010-11-17 08:06:27 51°13.661 2°55.959 127.7 0.1 347 10
2010-11-17 08:06:32 51°13.66 2°55.958 127.7 0.2 254 10
2010-11-17 08:06:36 51°13.661 2°55.958 127.7 0.2 297 10
2010-11-17 08:06:42 51°13.66 2°55.959 127.7 0.1 56 9.9
2010-11-17 08:06:47 51°13.66 2°55.959 127.7 0.1 139 10
2010-11-17 08:06:52 51°13.661 2°55.959 127.7 0.3 -999 10
2010-11-17 08:06:56 51°13.661 2°55.959 127.7 0.1 34 9.9
2010-11-17 08:07:02 51°13.66 2°55.959 127.7 0.1 78 9.9
2010-11-17 08:07:06 51°13.661 2°55.959 127.7 0.2 28 9.9
2010-11-17 08:07:12 51°13.661 2°55.959 127.7 0.1 42 10.1
2010-11-17 08:07:16 51°13.66 2°55.959 127.7 0.1 233 10
2010-11-17 08:07:22 51°13.66 2°55.959 127.7 0.1 291 10
2010-11-17 08:07:27 51°13.66 2°55.959 127.7 0.2 210 10
2010-11-17 08:07:32 51°13.66 2°55.958 127.7 0.2 289 10
2010-11-17 08:07:37 51°13.66 2°55.959 127.7 0.2 349 10
2010-11-17 08:07:42 51°13.66 2°55.959 127.7 0.2 170 10.1
2010-11-17 08:07:47 51°13.659 2°55.959 127.7 0.2 162 10
2010-11-17 08:07:53 51°13.66 2°55.959 127.7 0.2 154 9.9
2010-11-17 08:07:57 51°13.66 2°55.959 127.7 0.1 348 10.2
2010-11-17 08:08:02 51°13.659 2°55.959 127.7 0.4 162 10
2010-11-17 08:08:07 51°13.66 2°55.959 127.7 0.2 175 10
2010-11-17 08:08:13 51°13.659 2°55.959 127.7 0.2 207 10
2010-11-17 08:08:16 51°13.659 2°55.959 127.7 0.2 188 10
2010-11-17 08:08:22 51°13.661 2°55.959 127.7 0.3 10 10
2010-11-17 08:08:27 51°13.66 2°55.959 127.7 0.1 13 10
2010-11-17 08:08:32 51°13.661 2°55.959 127.7 0.2 318 9.9
2010-11-17 08:08:36 51°13.66 2°55.959 127.7 0.1 215 10.2
2010-11-17 08:08:42 51°13.659 2°55.96 127.7 0.4 166 9.9
2010-11-17 08:08:47 51°13.66 2°55.959 127.7 0.2 189 10
2010-11-17 08:08:52 51°13.66 2°55.959 127.7 0.2 320 9.9
2010-11-17 08:08:56 51°13.66 2°55.959 127.7 0.1 223 9.9
2010-11-17 08:09:02 51°13.66 2°55.959 127.7 0.1 175 9.9
2010-11-17 08:09:07 51°13.66 2°55.96 127.6 0.1 100 9.9
2010-11-17 08:09:12 51°13.66 2°55.96 127.6 0.2 74 9.9
2010-11-17 08:09:16 51°13.66 2°55.959 127.6 0.3 4 10
2010-11-17 08:09:22 51°13.66 2°55.959 127.6 0.3 9 9.9
2010-11-17 08:09:27 51°13.66 2°55.959 127.6 0.1 102 9.9
2010-11-17 08:09:32 51°13.66 2°55.959 127.5 0.1 146 9.9
2010-11-17 08:09:36 51°13.659 2°55.959 127.5 0.2 132 9.9
2010-11-17 08:09:42 51°13.659 2°55.958 127.5 0.1 202 9.9
2010-11-17 08:09:47 51°13.66 2°55.958 127.5 0.2 337 9.9
2010-11-17 08:09:52 51°13.66 2°55.958 127.5 0.2 344 9.9
2010-11-17 08:09:56 51°13.66 2°55.958 127.5 0.1 279 9.9
2010-11-17 08:10:03 51°13.66 2°55.958 127.5 -999 278 9.9
2010-11-17 08:10:07 51°13.66 2°55.958 127.5 0.2 159 9.9
2010-11-17 08:10:12 51°13.66 2°55.959 127.5 0.1 103 9.9
2010-11-17 08:10:16 51°13.661 2°55.958 127.5 0.3 8 9.9
2010-11-17 08:10:22 51°13.661 2°55.958 127.5 0.2 348 10
2010-11-17 08:10:28 51°13.661 2°55.957 127.5 0.3 343 9.9
2010-11-17 08:10:33 51°13.661 2°55.958 127.5 0.3 1 9.9
2010-11-17 08:10:37 51°13.661 2°55.958 127.4 0.2 14 9.9
2010-11-17 08:10:42 51°13.66 2°55.958 127.4 0.1 197 9.9
2010-11-17 08:10:47 51°13.66 2°55.958 127.4 0.1 194 9.9
2010-11-17 08:10:53 51°13.66 2°55.958 127.4 0.1 199 9.9
2010-11-17 08:10:57 51°13.66 2°55.958 127.4 0.1 188 9.9
2010-11-17 08:11:02 51°13.661 2°55.958 127.4 0.1 345 9.9
2010-11-17 08:11:07 51°13.661 2°55.958 127.4 0.2 14 9.9
2010-11-17 08:11:12 51°13.661 2°55.958 127.4 0.1 12 9.9
2010-11-17 08:11:17 51°13.66 2°55.958 127.3 -999 183 9.9
2010-11-17 08:11:22 51°13.66 2°55.958 127.3 0.2 188 9.9
2010-11-17 08:11:27 51°13.66 2°55.958 127.3 0.2 6 9.9
2010-11-17 08:11:32 51°13.661 2°55.958 127.3 0.4 12 9.9
2010-11-17 08:11:37 51°13.66 2°55.958 127.3 0.2 13 9.9
2010-11-17 08:11:42 51°13.66 2°55.958 127.3 0.1 20 9.9
2010-11-17 08:11:47 51°13.66 2°55.958 127.3 0.2 190 9.9
2010-11-17 08:11:53 51°13.66 2°55.958 127.3 -999 327 9.9
2010-11-17 08:11:57 51°13.66 2°55.958 127.3 -999 67 9.9
2010-11-17 08:12:02 51°13.66 2°55.958 127.3 -999 206 10.1
2010-11-17 08:12:07 51°13.66 2°55.958 127.3 0.1 10 9.9
2010-11-17 08:12:13 51°13.66 2°55.958 127.4 0.1 6 9.9
2010-11-17 08:12:17 51°13.659 2°55.958 127.4 0.1 187 9.9
2010-11-17 08:12:22 51°13.659 2°55.958 127.4 0.2 190 9.9
2010-11-17 08:12:27 51°13.66 2°55.958 127.4 -999 309 10
2010-11-17 08:12:32 51°13.66 2°55.958 127.4 0.1 18 10.1
2010-11-17 08:12:37 51°13.66 2°55.958 127.4 0.2 194 10.1
2010-11-17 08:12:41 51°13.66 2°55.958 127.4 0.2 18 9.9
2010-11-17 08:12:47 51°13.66 2°55.958 127.4 0.1 16 9.9
2010-11-17 08:12:52 51°13.661 2°55.958 127.4 0.1 19 10.1
2010-11-17 08:12:57 51°13.66 2°55.958 127.3 0.1 41 9.9
2010-11-17 08:13:02 51°13.66 2°55.958 127.2 0.2 190 9.9
2010-11-17 08:13:07 51°13.66 2°55.958 126.9 0.3 191 9.9
2010-11-17 08:13:12 51°13.66 2°55.958 126.5 0.2 196 9.9
2010-11-17 08:13:17 51°13.661 2°55.958 126.4 0.2 199 10
2010-11-17 08:13:21 51°13.661 2°55.958 126.4 0.2 356 10
2010-11-17 08:13:27 51°13.661 2°55.958 126.1 0.1 190 9.9
2010-11-17 08:13:32 51°13.662 2°55.958 125.5 0.1 348 10
2010-11-17 08:13:37 51°13.662 2°55.958 125.1 0.3 354 9.9
2010-11-17 08:13:42 51°13.663 2°55.958 124.8 0.2 1 9.9
2010-11-17 08:13:47 51°13.663 2°55.958 124.4 0.2 354 -999
2010-11-17 08:13:53 51°13.662 2°55.958 124.2 0.1 224 9.9
2010-11-17 08:13:57 51°13.662 2°55.958 123.9 0.2 205 9.9
2010-11-17 08:14:02 51°13.662 2°55.958 123.8 0.4 203 9.9
2010-11-17 08:14:07 51°13.662 2°55.958 123.9 0.5 191 9.9
2010-11-17 08:14:13 51°13.664 2°55.959 124.1 0.1 35 9.9
2010-11-17 08:14:17 51°13.663 2°55.959 124.2 0.1 354 9.9
2010-11-17 08:14:22 51°13.663 2°55.959 124.6 0.1 115 9.9
2010-11-17 08:14:27 51°13.663 2°55.959 125.3 0.1 11 9.9
2010-11-17 08:14:33 51°13.662 2°55.959 125.8 0.2 186 9.9
2010-11-17 08:14:37 51°13.662 2°55.959 126.4 0.4 199 9.9
2010-11-17 08:14:42 51°13.662 2°55.959 127 0.2 190 10.1
2010-11-17 08:14:47 51°13.663 2°55.959 127.3 -999 185 9.9
2010-11-17 08:14:53 51°13.662 2°55.959 127.7 0.3 188 9.9
2010-11-17 08:14:57 51°13.663 2°55.959 127.8 0.1 233 9.9
2010-11-17 08:15:02 51°13.663 2°55.959 127.8 0.1 218 9.9
2010-11-17 08:15:07 51°13.663 2°55.96 127.8 -999 306 9.9
2010-11-17 08:15:13 51°13.663 2°55.959 127.7 0.1 195 9.9
2010-11-17 08:15:17 51°13.663 2°55.959 127.4 -999 283 9.9
2010-11-17 08:15:22 51°13.664 2°55.96 127.1 0.4 7 9.9
2010-11-17 08:15:27 51°13.664 2°55.959 126.9 0.1 329 9.9
2010-11-17 08:15:33 51°13.664 2°55.959 126.5 -999 238 9.9
2010-11-17 08:15:37 51°13.664 2°55.959 126.3 0.2 357 10
2010-11-17 08:15:42 51°13.664 2°55.96 126.1 0.1 15 9.9
2010-11-17 08:15:47 51°13.664 2°55.96 125.9 0.1 21 9.9
2010-11-17 08:15:53 51°13.665 2°55.96 125.8 0.3 14 9.9
2010-11-17 08:15:57 51°13.664 2°55.96 125.8 0.4 -999 9.9
2010-11-17 08:16:02 51°13.664 2°55.96 125.9 0.1 202 9.9
2010-11-17 08:16:07 51°13.663 2°55.961 126.1 0.3 154 9.9
2010-11-17 08:16:13 51°13.663 2°55.961 126.4 0.5 149 9.9
2010-11-17 08:16:17 51°13.663 2°55.961 126.7 0.4 164 9.9
2010-11-17 08:16:22 51°13.664 2°55.96 127.1 0.2 353 10.1
2010-11-17 08:16:27 51°13.664 2°55.96 127.4 0.1 315 9.9
2010-11-17 08:16:33 51°13.664 2°55.96 127.8 -999 135 9.9
2010-11-17 08:16:37 51°13.663 2°55.961 127.8 0.2 177 10
2010-11-17 08:16:42 51°13.663 2°55.961 127.7 0.2 181 9.9
2010-11-17 08:16:47 51°13.664 2°55.961 127.7 0.1 82 10
2010-11-17 08:16:53 51°13.664 2°55.96 127.7 0.1 359 9.9
2010-11-17 08:16:57 51°13.664 2°55.961 127.6 -999 58 9.9
2010-11-17 08:17:02 51°13.664 2°55.96 127.6 -999 169 9.9
2010-11-17 08:17:07 51°13.664 2°55.961 127.6 0.1 353 10
2010-11-17 08:17:12 51°13.664 2°55.96 127.6 0.2 305 9.9
2010-11-17 08:17:17 51°13.664 2°55.96 127.4 0.2 318 9.9
2010-11-17 08:17:22 51°13.664 2°55.961 127.1 0.1 15 9.9
2010-11-17 08:17:27 51°13.664 2°55.961 126.8 0.1 82 9.9
2010-11-17 08:17:32 51°13.663 2°55.962 126.6 0.6 151 9.9
2010-11-17 08:17:37 51°13.664 2°55.961 126.6 0.4 147 9.9
2010-11-17 08:17:43 51°13.664 2°55.961 126.6 0.3 317 9.9
2010-11-17 08:17:47 51°13.664 2°55.961 126.6 0.1 269 9.9
2010-11-17 08:17:52 51°13.664 2°55.961 126.6 0.3 166 9.9
2010-11-17 08:17:57 51°13.664 2°55.961 126.6 0.2 164 9.9
2010-11-17 08:18:02 51°13.665 2°55.961 126.6 0.2 337 9.9
2010-11-17 08:18:07 51°13.664 2°55.961 126.6 -999 333 9.9
2010-11-17 08:18:13 51°13.664 2°55.961 126.6 -999 161 9.9
2010-11-17 08:18:17 51°13.664 2°55.96 126.6 0.1 272 9.9
2010-11-17 08:18:21 51°13.664 2°55.961 126.6 0.3 202 9.9
2010-11-17 08:18:27 51°13.664 2°55.961 126.6 0.1 165 10
2010-11-17 08:18:32 51°13.664 2°55.961 126.6 0.1 319 9.9
2010-11-17 08:18:37 51°13.664 2°55.961 126.6 0.1 296 9.9
2010-11-17 08:18:42 51°13.665 2°55.961 126.6 0.2 356 9.9
2010-11-17 08:18:47 51°13.665 2°55.961 126.7 0.3 6 9.9
2010-11-17 08:18:53 51°13.665 2°55.962 126.8 0.2 74 9.9
2010-11-17 08:18:57 51°13.665 2°55.961 126.9 0.2 352 9.9
2010-11-17 08:19:01 51°13.665 2°55.962 127 0.5 20 9.9
2010-11-17 08:19:07 51°13.665 2°55.962 127 0.3 49 9.9
2010-11-17 08:19:12 51°13.665 2°55.961 127 0.3 339 9.9
2010-11-17 08:19:17 51°13.664 2°55.961 127 0.1 289 9.9
2010-11-17 08:19:22 51°13.664 2°55.962 127 0.1 68 9.9
2010-11-17 08:19:27 51°13.664 2°55.962 127 0.3 124 9.9
2010-11-17 08:19:32 51°13.664 2°55.962 127 0.2 112 9.9
2010-11-17 08:19:37 51°13.664 2°55.962 127.2 0.2 64 9.9
2010-11-17 08:19:41 51°13.664 2°55.962 127.5 0.3 44 9.9
2010-11-17 08:19:47 51°13.665 2°55.962 127.8 0.3 30 10
2010-11-17 08:19:52 51°13.664 2°55.962 127.9 0.2 144 10
2010-11-17 08:19:57 51°13.664 2°55.961 128 0.1 172 9.9
2010-11-17 08:20:02 51°13.664 2°55.96 128 0.5 312 9.9
2010-11-17 08:20:07 51°13.664 2°55.961 128 0.2 308 9.9
2010-11-17 08:20:13 51°13.664 2°55.961 128 0.3 317 9.9
2010-11-17 08:20:17 51°13.665 2°55.961 128 0.4 341 9.9
2010-11-17 08:20:21 51°13.665 2°55.961 128 0.2 -999 9.9
2010-11-17 08:20:27 51°13.664 2°55.961 128 0.1 226 9.9
2010-11-17 08:20:32 51°13.664 2°55.962 128 0.4 172 9.9
2010-11-17 08:20:37 51°13.665 2°55.962 128 0.2 141 9.9
2010-11-17 08:20:42 51°13.665 2°55.962 128 0.1 43 9.9
2010-11-17 08:20:47 51°13.664 2°55.962 128.1 0.2 111 9.9
2010-11-17 08:20:53 51°13.664 2°55.963 128.2 0.5 139 9.9
2010-11-17 08:20:57 51°13.664 2°55.962 128.3 0.3 145 9.9
2010-11-17 08:21:01 51°13.664 2°55.962 128.3 0.1 137 9.9
2010-11-17 08:21:07 51°13.665 2°55.962 128.4 0.1 347 9.9
2010-11-17 08:21:13 51°13.664 2°55.962 128.4 0.1 350 9.9
2010-11-17 08:21:17 51°13.664 2°55.962 128.5 0.2 178 10
2010-11-17 08:21:22 51°13.664 2°55.962 128.6 0.1 138 10
2010-11-17 08:21:27 51°13.664 2°55.962 128.6 0.1 60 10
2010-11-17 08:21:32 51°13.664 2°55.962 128.6 0.1 339 10
2010-11-17 08:21:37 51°13.664 2°55.962 128.6 0.1 101 10
2010-11-17 08:21:41 51°13.664 2°55.962 128.6 0.4 139 9.9
2010-11-17 08:21:47 51°13.664 2°55.962 128.6 0.1 17 9.9
2010-11-17 08:21:52 51°13.664 2°55.961 128.6 0.1 323 10
2010-11-17 08:21:57 51°13.664 2°55.961 128.6 0.1 250 9.9
2010-11-17 08:22:02 51°13.664 2°55.961 128.5 -999 118 10
2010-11-17 08:22:07 51°13.664 2°55.961 128.4 0.1 297 9.9
2010-11-17 08:22:12 51°13.664 2°55.961 128.3 0.2 291 9.9
2010-11-17 08:22:17 51°13.663 2°55.962 128.2 0.1 167 9.9
2010-11-17 08:22:23 51°13.664 2°55.961 128 0.3 2 9.9
2010-11-17 08:22:27 51°13.663 2°55.962 127.9 0.2 125 9.9
2010-11-17 08:22:32 51°13.664 2°55.961 127.7 0.2 7 10
2010-11-17 08:22:37 51°13.664 2°55.961 127.1 0.1 328 9.9
2010-11-17 08:22:42 51°13.664 2°55.962 125.9 0.1 2 9.9
2010-11-17 08:22:47 51°13.664 2°55.962 124.6 0.1 7 9.9
2010-11-17 08:22:53 51°13.664 2°55.962 123.5 0.3 43 10
2010-11-17 08:22:57 51°13.664 2°55.962 122.6 0.1 94 9.8
2010-11-17 08:23:02 51°13.663 2°55.962 121.6 0.2 227 9.9
2010-11-17 08:23:07 51°13.662 2°55.962 120.6 0.2 188 9.8
2010-11-17 08:23:13 51°13.663 2°55.962 118.9 0.3 158 9.9
2010-11-17 08:23:17 51°13.663 2°55.962 117.6 0.1 351 9.9
2010-11-17 08:23:22 51°13.662 2°55.962 116.2 0.2 120 10
2010-11-17 08:23:27 51°13.662 2°55.961 114.9 0.3 291 10.1
2010-11-17 08:23:32 51°13.662 2°55.961 113.7 0.2 269 9.9
2010-11-17 08:23:37 51°13.662 2°55.961 112.6 0.1 273 9.9
2010-11-17 08:23:41 51°13.661 2°55.961 111.5 0.3 215 9.9
2010-11-17 08:23:47 51°13.662 2°55.959 110.9 0.8 298 10
2010-11-17 08:23:52 51°13.663 2°55.957 110.2 1.1 296 10
2010-11-17 08:23:57 51°13.663 2°55.954 109.9 1.2 289 10
2010-11-17 08:24:02 51°13.664 2°55.95 109.7 1.7 288 10
2010-11-17 08:24:07 51°13.665 2°55.945 109.7 1.9 288 4.9
2010-11-17 08:24:13 51°13.667 2°55.939 109.7 2.3 293 -999
2010-11-17 08:24:18 51°13.669 2°55.933 109.7 2.8 295 -999
2010-11-17 08:24:25 51°13.671 2°55.924 109.2 3.3 289 -999
2010-11-17 08:24:30 51°13.673 2°55.917 108.6 3.3 288 -999
2010-11-17 08:24:36 51°13.675 2°55.908 108.1 3.5 288 -999
2010-11-17 08:24:41 51°13.677 2°55.9 107.5 3.8 289 -999
2010-11-17 08:24:46 51°13.679 2°55.892 106.8 4 291 -999
2010-11-17 08:24:51 51°13.681 2°55.883 106.4 4.2 291 -999
2010-11-17 08:24:56 51°13.683 2°55.874 106 4.2 289 -999
2010-11-17 08:25:01 51°13.685 2°55.864 105.3 4.6 289 -999
2010-11-17 08:25:06 51°13.686 2°55.856 104.4 4.2 286 -999
2010-11-17 08:25:11 51°13.687 2°55.848 103.2 3.9 286 -999
2010-11-17 08:25:16 51°13.689 2°55.839 101.7 4 288 -999
2010-11-17 08:25:21 51°13.69 2°55.83 100.8 4 287 -999
2010-11-17 08:25:26 51°13.692 2°55.821 100.2 3.9 285 -999
2010-11-17 08:25:31 51°13.693 2°55.813 99.5 3.9 285 -999
2010-11-17 08:25:36 51°13.693 2°55.804 98.7 3.9 281 -999
2010-11-17 08:25:41 51°13.695 2°55.795 97.8 4 280 -999
2010-11-17 08:25:46 51°13.696 2°55.787 96.9 4 282 -999
2010-11-17 08:25:51 51°13.697 2°55.779 95.4 3.8 282 -999
2010-11-17 08:25:56 51°13.698 2°55.771 94.2 3.6 281 -999
2010-11-17 08:26:01 51°13.698 2°55.763 92.9 3.5 278 -999
2010-11-17 08:26:06 51°13.699 2°55.756 91.7 3.4 276 -999
2010-11-17 08:26:11 51°13.699 2°55.748 90.8 3.3 277 -999
2010-11-17 08:26:16 51°13.7 2°55.742 89.4 3.2 277 15.7
2010-11-17 08:26:21 51°13.701 2°55.736 88 2.8 279 15.6
2010-11-17 08:26:25 51°13.701 2°55.733 86.5 1.9 276 15.3
2010-11-17 08:26:30 51°13.701 2°55.731 84.4 1.3 285 15.5
2010-11-17 08:26:35 51°13.702 2°55.73 79.9 0.9 301 15.6
2010-11-17 08:26:40 51°13.702 2°55.728 73.9 0.6 304 15.5
2010-11-17 08:26:45 51°13.703 2°55.728 67.2 0.5 306 15.5
2010-11-17 08:26:49 51°13.704 2°55.727 62 0.7 339 15.5
2010-11-17 08:26:54 51°13.706 2°55.728 58.2 0.5 1 15.6
2010-11-17 08:26:59 51°13.707 2°55.727 53.2 0.8 347 15.6
2010-11-17 08:27:04 51°13.708 2°55.727 48 0.6 346 15.3
2010-11-17 08:27:09 51°13.708 2°55.726 43.4 0.5 305 15.2
2010-11-17 08:27:13 51°13.707 2°55.725 39.4 0.7 254 15
2010-11-17 08:27:18 51°13.707 2°55.723 36.4 0.9 264 15
2010-11-17 08:27:23 51°13.706 2°55.72 31.7 1.1 245 15.7
2010-11-17 08:27:28 51°13.704 2°55.718 29.1 1.3 230 15.9
2010-11-17 08:27:33 51°13.703 2°55.716 25.2 1.4 225 15.9
2010-11-17 08:27:38 51°13.702 2°55.713 23 1.3 225 15.9
2010-11-17 08:27:43 51°13.701 2°55.711 20.3 1.1 230 -999
2010-11-17 08:27:49 51°13.7 2°55.71 18 0.8 226 -999
2010-11-17 08:27:54 51°13.699 2°55.71 15.6 0.5 246 -999
2010-11-17 08:27:59 51°13.7 2°55.709 11.9 0.5 326 4.8
2010-11-17 08:28:05 51°13.701 2°55.709 7.7 0.7 341 -999
2010-11-17 08:28:10 51°13.703 2°55.708 3.1 1.1 347 -999
2010-11-17 08:28:16 51°13.706 2°55.707 359.3 1.7 346 -999
2010-11-17 08:28:21 51°13.71 2°55.706 355.7 2.3 347 16
2010-11-17 08:28:25 51°13.713 2°55.704 352.5 2.9 343 14.6
2010-11-17 08:28:30 51°13.719 2°55.702 348.6 4 345 13.4
2010-11-17 08:28:35 51°13.726 2°55.699 346.3 4.8 345 13.4
2010-11-17 08:28:40 51°13.732 2°55.695 344.3 5.2 342 13.6
2010-11-17 08:28:45 51°13.739 2°55.691 342.9 5.4 340 13.5
2010-11-17 08:28:49 51°13.744 2°55.687 341.8 5.8 338 13.5
2010-11-17 08:28:54 51°13.752 2°55.681 339.9 6.4 336 13.5
2010-11-17 08:28:59 51°13.761 2°55.675 337.6 6.6 335 13.3
2010-11-17 08:29:04 51°13.77 2°55.668 336.2 6.8 334 13.2
2010-11-17 08:29:09 51°13.779 2°55.661 336 5.5 333 13.4
2010-11-17 08:29:14 51°13.789 2°55.655 335.5 4.2 334 13.3
2010-11-17 08:29:19 51°13.8 2°55.647 335 6.9 332 13.3
2010-11-17 08:29:24 51°13.811 2°55.639 334 8.1 333 13.3
2010-11-17 08:29:29 51°13.821 2°55.632 334 8.1 335 13.3
2010-11-17 08:29:33 51°13.828 2°55.625 334.5 8.3 335 13.3
2010-11-17 08:29:38 51°13.839 2°55.617 334.3 8.5 335 13.3
2010-11-17 08:29:43 51°13.849 2°55.609 334 8.4 335 13.3
2010-11-17 08:29:48 51°13.86 2°55.602 334.8 8.5 336 12.7
2010-11-17 08:29:53 51°13.871 2°55.594 336.6 8.5 337 12.6
2010-11-17 08:29:57 51°13.879 2°55.588 336.9 8.6 336 13.5
2010-11-17 08:30:02 51°13.891 2°55.58 336.9 9 336 13.5
2010-11-17 08:30:07 51°13.904 2°55.572 336.7 9.2 336 13.6
2010-11-17 08:30:13 51°13.918 2°55.562 335.8 9.4 336 13.6
2010-11-17 08:30:17 51°13.928 2°55.554 335 9.5 335 13.6
2010-11-17 08:30:22 51°13.94 2°55.546 334.5 9.6 335 13.6
2010-11-17 08:30:27 51°13.952 2°55.537 334.4 9.6 336 13.6
2010-11-17 08:30:32 51°13.964 2°55.528 335 9.7 336 13.6
2010-11-17 08:30:37 51°13.977 2°55.519 335.6 9.7 336 13.6
2010-11-17 08:30:42 51°13.989 2°55.511 336.2 9.7 337 13.6
2010-11-17 08:30:47 51°14.001 2°55.502 336.2 9.8 336 13.6
2010-11-17 08:30:52 51°14.014 2°55.494 336.5 9.8 337 13.6
2010-11-17 08:30:57 51°14.026 2°55.486 337.2 9.8 338 13.6
2010-11-17 08:31:02 51°14.039 2°55.477 337 9.8 337 13.3
2010-11-17 08:31:07 51°14.051 2°55.469 337 9.7 337 13.7
2010-11-17 08:31:13 51°14.066 2°55.459 337.6 9.8 337 13.2
2010-11-17 08:31:17 51°14.077 2°55.453 337.5 10 338 13.9
2010-11-17 08:31:22 51°14.09 2°55.445 337.4 10.1 337 13.6
2010-11-17 08:31:27 51°14.103 2°55.436 337.4 10.1 337 13.6
2010-11-17 08:31:32 51°14.116 2°55.427 337.5 10.2 338 13.5
2010-11-17 08:31:37 51°14.129 2°55.418 337.4 10.2 337 13.6
2010-11-17 08:31:42 51°14.142 2°55.409 336.9 10.2 337 13.6
2010-11-17 08:31:47 51°14.155 2°55.4 336.5 10.2 336 13.6
2010-11-17 08:31:52 51°14.168 2°55.39 335.2 10.3 333 13.5
2010-11-17 08:31:57 51°14.181 2°55.379 333.1 10.4 332 13.6
2010-11-17 08:32:02 51°14.193 2°55.368 332.2 10.4 332 13.6
2010-11-17 08:32:07 51°14.206 2°55.357 331.1 10.6 330 13.5
2010-11-17 08:32:13 51°14.221 2°55.342 329.8 10.7 329 13.5
2010-11-17 08:32:17 51°14.232 2°55.333 329.6 10.7 330 13.5
2010-11-17 08:32:22 51°14.245 2°55.321 330.3 10.8 331 13.5
2010-11-17 08:32:27 51°14.258 2°55.309 329.9 10.8 329 13.4
2010-11-17 08:32:33 51°14.273 2°55.294 329.4 10.9 330 13.7
2010-11-17 08:32:37 51°14.284 2°55.285 330.2 11 331 13.3
2010-11-17 08:32:42 51°14.297 2°55.272 330.3 11.1 330 14
2010-11-17 08:32:47 51°14.31 2°55.26 329.9 11.2 329 13.3
2010-11-17 08:32:53 51°14.326 2°55.245 329.9 11.3 330 13.3
2010-11-17 08:32:57 51°14.337 2°55.234 329.5 11.4 328 13.3
2010-11-17 08:33:02 51°14.35 2°55.221 328.8 11.4 328 13.1
2010-11-17 08:33:07 51°14.364 2°55.207 328.9 11.5 328 12.3
2010-11-17 08:33:12 51°14.377 2°55.193 328.2 11.7 328 13.5
2010-11-17 08:33:17 51°14.391 2°55.18 328 11.7 328 13
2010-11-17 08:33:22 51°14.405 2°55.166 328.2 11.8 328 13.6
2010-11-17 08:33:27 51°14.419 2°55.152 327.2 11.9 326 13.6
2010-11-17 08:33:33 51°14.436 2°55.134 326.4 11.9 326 12.9
2010-11-17 08:33:37 51°14.447 2°55.122 326.2 11.9 326 13.4
2010-11-17 08:33:42 51°14.461 2°55.107 326 12 326 13.3
2010-11-17 08:33:47 51°14.475 2°55.092 325.8 12.1 326 13.2
2010-11-17 08:33:52 51°14.488 2°55.077 324.3 12.3 325 13.5
2010-11-17 08:33:57 51°14.503 2°55.062 324 12.3 326 13.5
2010-11-17 08:34:02 51°14.517 2°55.047 325.2 12.4 328 13.9
2010-11-17 08:34:07 51°14.532 2°55.033 326.8 12.5 330 14
2010-11-17 08:34:13 51°14.551 2°55.017 327.4 12.7 331 13.7
2010-11-17 08:34:17 51°14.563 2°55.006 328.1 12.9 333 13.7
2010-11-17 08:34:22 51°14.58 2°54.994 329.2 13 334 13.7
2010-11-17 08:34:27 51°14.596 2°54.98 329.1 13.1 332 13.8
2010-11-17 08:34:33 51°14.615 2°54.963 326.9 13.3 330 13.6
2010-11-17 08:34:37 51°14.628 2°54.951 324.4 13.3 329 13.6
2010-11-17 08:34:42 51°14.644 2°54.936 323.4 13.2 329 13.7
2010-11-17 08:34:47 51°14.659 2°54.92 321.8 13.1 327 13.7
2010-11-17 08:34:52 51°14.674 2°54.904 320.9 13.2 327 13.9
2010-11-17 08:34:57 51°14.689 2°54.889 320.9 13.1 327 14.1
2010-11-17 08:35:02 51°14.704 2°54.873 320.8 13 326 13.9
2010-11-17 08:35:07 51°14.719 2°54.857 319.9 13 326 14
2010-11-17 08:35:12 51°14.734 2°54.84 319.3 12.9 325 13.9
2010-11-17 08:35:17 51°14.749 2°54.824 319 13 325 13.9
2010-11-17 08:35:22 51°14.763 2°54.807 318.7 13 324 13.9
2010-11-17 08:35:27 51°14.778 2°54.79 318.3 13 324 13.8
2010-11-17 08:35:32 51°14.792 2°54.774 317.9 12.8 324 13.8
2010-11-17 08:35:37 51°14.807 2°54.757 317.8 12.8 325 13.5
2010-11-17 08:35:41 51°14.819 2°54.744 318 12.9 324 13.7
2010-11-17 08:35:47 51°14.836 2°54.725 318 12.9 325 14.2
2010-11-17 08:35:52 51°14.851 2°54.708 318 13 325 14.2
2010-11-17 08:35:57 51°14.865 2°54.692 318 13 325 14.1
2010-11-17 08:36:02 51°14.88 2°54.675 318.5 12.9 325 13.9
2010-11-17 08:36:07 51°14.895 2°54.659 318.7 12.8 325 14
2010-11-17 08:36:12 51°14.91 2°54.643 318.8 12.8 325 13.9
2010-11-17 08:36:17 51°14.924 2°54.627 318.4 12.9 325 13.9
2010-11-17 08:36:21 51°14.936 2°54.614 318.3 12.9 325 13.5
2010-11-17 08:36:27 51°14.954 2°54.594 318.4 12.9 326 12.4
2010-11-17 08:36:32 51°14.968 2°54.578 318.7 12.8 325 12.3
2010-11-17 08:36:37 51°14.983 2°54.561 318.7 12.8 325 12.1
2010-11-17 08:36:42 51°14.997 2°54.545 318.7 12.9 325 12.1
2010-11-17 08:36:47 51°15.012 2°54.528 318.4 13 324 12.1
2010-11-17 08:36:53 51°15.03 2°54.509 318.5 13 325 12.1
2010-11-17 08:36:57 51°15.042 2°54.495 318.7 13 324 12.2
2010-11-17 08:37:01 51°15.053 2°54.483 318.7 12.9 325 12
2010-11-17 08:37:07 51°15.071 2°54.463 318.5 13 325 11.9
2010-11-17 08:37:12 51°15.086 2°54.446 318.5 13 325 11.9
2010-11-17 08:37:17 51°15.101 2°54.43 318.7 13 325 11.9
2010-11-17 08:37:22 51°15.115 2°54.413 319.1 13 326 11.9
2010-11-17 08:37:27 51°15.13 2°54.397 319.3 12.9 326 11.8
2010-11-17 08:37:32 51°15.145 2°54.381 319.1 13 325 11.8
2010-11-17 08:37:38 51°15.163 2°54.361 319 13 325 11.8
2010-11-17 08:37:42 51°15.175 2°54.348 318.7 13.1 325 11.9
2010-11-17 08:37:47 51°15.189 2°54.332 318.7 13 325 12
2010-11-17 08:37:52 51°15.204 2°54.315 318.8 13 325 11.9
2010-11-17 08:37:57 51°15.219 2°54.299 318.9 13 325 12.2
2010-11-17 08:38:02 51°15.234 2°54.283 318.8 13 326 12.2
2010-11-17 08:38:07 51°15.249 2°54.267 319.2 13.1 326 12
2010-11-17 08:38:12 51°15.264 2°54.25 319.2 13 326 12
2010-11-17 08:38:17 51°15.279 2°54.235 319.3 12.9 326 12
2010-11-17 08:38:22 51°15.294 2°54.219 319.4 12.9 326 12.1
2010-11-17 08:38:27 51°15.309 2°54.203 319.2 12.9 326 12.1
2010-11-17 08:38:32 51°15.324 2°54.187 319 13 326 12
2010-11-17 08:38:37 51°15.338 2°54.17 318.9 13 326 11.9
2010-11-17 08:38:42 51°15.353 2°54.154 319.1 13.1 326 11.9
2010-11-17 08:38:47 51°15.368 2°54.138 319.2 12.9 326 12.1
2010-11-17 08:38:52 51°15.383 2°54.122 318.8 13 325 12.2
2010-11-17 08:38:57 51°15.398 2°54.106 318.8 13.1 326 12.3
2010-11-17 08:39:02 51°15.413 2°54.089 318.7 13 325 12.3
2010-11-17 08:39:07 51°15.428 2°54.073 319.2 13 326 12.4
2010-11-17 08:39:12 51°15.443 2°54.056 319.2 13 325 12.6
2010-11-17 08:39:17 51°15.458 2°54.041 319.4 13 326 12.8
2010-11-17 08:39:22 51°15.472 2°54.024 319.5 13 325 12.7
2010-11-17 08:39:27 51°15.487 2°54.008 319.3 13 326 12.7
2010-11-17 08:39:32 51°15.502 2°53.992 319.3 13 325 12.7
2010-11-17 08:39:37 51°15.517 2°53.975 319.1 13 326 12.8
2010-11-17 08:39:42 51°15.532 2°53.959 319 13 325 12.8
2010-11-17 08:39:47 51°15.546 2°53.942 318.9 13.1 325 12.9
2010-11-17 08:39:52 51°15.561 2°53.926 319.3 13 325 12.8
2010-11-17 08:39:57 51°15.576 2°53.91 319.4 12.9 326 12.9
2010-11-17 08:40:02 51°15.59 2°53.892 318.1 12.9 323 13.1
2010-11-17 08:40:07 51°15.604 2°53.875 317.3 12.9 323 13
2010-11-17 08:40:12 51°15.618 2°53.858 316.6 12.9 322 13
2010-11-17 08:40:17 51°15.633 2°53.84 316 12.9 322 13.2
2010-11-17 08:40:22 51°15.647 2°53.823 315.6 12.9 322 13.2
2010-11-17 08:40:27 51°15.66 2°53.804 315.1 12.8 321 13.3
2010-11-17 08:40:32 51°15.674 2°53.787 315.1 12.8 321 13.3
2010-11-17 08:40:37 51°15.688 2°53.768 314.7 12.9 320 13.3
2010-11-17 08:40:42 51°15.702 2°53.751 314.8 12.9 322 13.3
2010-11-17 08:40:47 51°15.716 2°53.733 315.3 12.8 322 13.3
2010-11-17 08:40:52 51°15.73 2°53.716 315.6 12.9 322 13.4
2010-11-17 08:40:57 51°15.744 2°53.698 315.7 12.8 321 13.4
2010-11-17 08:41:02 51°15.758 2°53.681 315.5 12.8 322 13.4
2010-11-17 08:41:07 51°15.772 2°53.663 315.6 12.9 322 13.5
2010-11-17 08:41:12 51°15.786 2°53.646 315.4 12.8 322 13.5
2010-11-17 08:41:17 51°15.8 2°53.628 315.1 12.8 321 13.6
2010-11-17 08:41:22 51°15.814 2°53.61 315.1 12.8 322 13.6
2010-11-17 08:41:27 51°15.827 2°53.592 315.1 12.9 321 13.6
2010-11-17 08:41:32 51°15.841 2°53.574 314.9 12.9 321 13.5
2010-11-17 08:41:37 51°15.855 2°53.556 315 12.9 321 13.7
2010-11-17 08:41:42 51°15.869 2°53.539 315 12.8 322 13.7
2010-11-17 08:41:47 51°15.884 2°53.523 316.1 12.8 325 13.7
2010-11-17 08:41:52 51°15.9 2°53.51 321.1 13 331 13.6
2010-11-17 08:41:57 51°15.915 2°53.495 323.8 13 331 13.7
2010-11-17 08:42:02 51°15.932 2°53.484 326.7 13.1 336 13.6
2010-11-17 08:42:07 51°15.948 2°53.471 328.3 13.1 335 13.7
2010-11-17 08:42:12 51°15.965 2°53.46 330.1 13.1 338 13.6
2010-11-17 08:42:17 51°15.982 2°53.45 331.8 13.2 339 13.8
2010-11-17 08:42:22 51°15.999 2°53.439 333.3 13.2 340 13.8
2010-11-17 08:42:27 51°16.017 2°53.43 334.5 13.1 341 13.8
2010-11-17 08:42:32 51°16.034 2°53.419 334.1 13.1 339 13.8
2010-11-17 08:42:37 51°16.051 2°53.409 333.8 13.2 340 13.8
2010-11-17 08:42:42 51°16.068 2°53.397 333.5 13.3 338 13.8
2010-11-17 08:42:47 51°16.085 2°53.387 333.2 13.1 339 13.9
2010-11-17 08:42:52 51°16.101 2°53.376 333.1 13.1 338 13.9
2010-11-17 08:42:57 51°16.119 2°53.366 333 13.1 338 14
2010-11-17 08:43:02 51°16.136 2°53.355 332 13.2 338 13.9
2010-11-17 08:43:07 51°16.152 2°53.343 331.5 13.1 337 14
2010-11-17 08:43:12 51°16.169 2°53.332 330.6 13.1 336 14
2010-11-17 08:43:17 51°16.186 2°53.32 330.2 13.2 336 14.1
2010-11-17 08:43:22 51°16.202 2°53.308 329.9 13.1 336 14.1
2010-11-17 08:43:27 51°16.218 2°53.296 329.6 13.1 336 14.1
2010-11-17 08:43:32 51°16.235 2°53.284 329.6 13.1 336 14
2010-11-17 08:43:37 51°16.252 2°53.273 329.8 13.1 336 14
2010-11-17 08:43:42 51°16.269 2°53.261 329.9 13.1 336 14.1
2010-11-17 08:43:47 51°16.285 2°53.249 329.9 13.1 336 14.1
2010-11-17 08:43:52 51°16.301 2°53.237 329.7 13.1 335 14.2
2010-11-17 08:43:57 51°16.318 2°53.225 329.5 13 335 14.2
2010-11-17 08:44:02 51°16.334 2°53.214 329.4 13.1 336 14.2
2010-11-17 08:44:07 51°16.351 2°53.202 329.4 13.1 335 14.2
2010-11-17 08:44:12 51°16.367 2°53.189 329.5 13.1 335 14.1
2010-11-17 08:44:17 51°16.384 2°53.177 329.4 13.1 335 14.2
2010-11-17 08:44:22 51°16.4 2°53.166 329.1 13.1 335 14.2
2010-11-17 08:44:27 51°16.417 2°53.154 329 13.1 336 14.2
2010-11-17 08:44:32 51°16.433 2°53.141 329 13 335 14.1
2010-11-17 08:44:37 51°16.45 2°53.13 329 12.9 336 14.1
2010-11-17 08:44:42 51°16.466 2°53.118 329.2 13.1 336 14.1
2010-11-17 08:44:47 51°16.483 2°53.105 329.2 13 334 14.1
2010-11-17 08:44:52 51°16.499 2°53.093 328.9 13.1 335 14.1
2010-11-17 08:44:57 51°16.516 2°53.081 328.8 13.1 335 14.2
2010-11-17 08:45:02 51°16.532 2°53.069 329.1 13.1 335 14.2
2010-11-17 08:45:07 51°16.548 2°53.056 328.9 13.1 335 14.1
2010-11-17 08:45:12 51°16.564 2°53.044 328.9 13 334 14.1
2010-11-17 08:45:17 51°16.581 2°53.032 328.8 13 335 14
2010-11-17 08:45:22 51°16.598 2°53.019 328.8 13 335 13.9
2010-11-17 08:45:27 51°16.614 2°53.007 329.1 13 335 13.8
2010-11-17 08:45:32 51°16.63 2°52.995 329 13.1 335 13.8
2010-11-17 08:45:37 51°16.647 2°52.982 328.8 13.1 335 13.8
2010-11-17 08:45:42 51°16.663 2°52.97 328.9 13 334 13.8
2010-11-17 08:45:47 51°16.679 2°52.957 328.8 13 334 13.7
2010-11-17 08:45:52 51°16.696 2°52.945 328.7 13 335 13.4
2010-11-17 08:45:57 51°16.712 2°52.932 328.7 13.1 334 13.3
2010-11-17 08:46:02 51°16.729 2°52.92 328.8 13.1 335 13.1
2010-11-17 08:46:07 51°16.745 2°52.907 328.9 13.1 334 12.9
2010-11-17 08:46:12 51°16.761 2°52.895 328.9 13.1 335 12.7
2010-11-17 08:46:17 51°16.777 2°52.882 328.9 13 334 12.4
2010-11-17 08:46:22 51°16.794 2°52.87 328.9 12.9 334 12
2010-11-17 08:46:27 51°16.81 2°52.857 328.9 13 334 11.9
2010-11-17 08:46:32 51°16.826 2°52.845 329 12.9 334 11.9
2010-11-17 08:46:37 51°16.843 2°52.832 328.6 13 334 11.7
2010-11-17 08:46:42 51°16.858 2°52.818 328.4 12.9 333 11.6
2010-11-17 08:46:47 51°16.875 2°52.807 328.4 13 334 11.5
2010-11-17 08:46:52 51°16.891 2°52.794 328.6 13.2 334 11.7
2010-11-17 08:46:57 51°16.907 2°52.78 328.7 13.2 333 11.7
2010-11-17 08:47:02 51°16.924 2°52.767 328.2 13 333 11.8
2010-11-17 08:47:07 51°16.94 2°52.756 328.3 13.1 335 11.9
2010-11-17 08:47:12 51°16.957 2°52.743 328.8 13.2 335 11.7
2010-11-17 08:47:17 51°16.973 2°52.729 328.7 13.2 334 12
2010-11-17 08:47:22 51°16.99 2°52.718 330.1 13.2 337 12.2
2010-11-17 08:47:27 51°17.007 2°52.706 331.3 13.2 337 12.1
2010-11-17 08:47:32 51°17.024 2°52.695 332.2 13.3 339 12.4
2010-11-17 08:47:37 51°17.041 2°52.684 333.2 13.2 338 12.5
2010-11-17 08:47:42 51°17.058 2°52.674 333.6 13.3 339 12.2
2010-11-17 08:47:47 51°17.075 2°52.664 334.3 13.3 339 12.2
2010-11-17 08:47:52 51°17.093 2°52.654 334.7 13.3 341 12
2010-11-17 08:47:57 51°17.11 2°52.644 335.1 13.3 341 11.9
2010-11-17 08:48:02 51°17.128 2°52.637 336.9 13.3 345 11.8
2010-11-17 08:48:07 51°17.146 2°52.633 342.7 13.2 351 11.9
2010-11-17 08:48:12 51°17.165 2°52.629 346.7 13.4 352 12